Time;durP1;ratioP1;P1;durP2;ratioP2;P2;SDS_P1;SDS_P2;PMS_P1;PMS_P2;Temp;Humidity;BMP_temperature;BMP_pressure;BME280_temperature;BME280_humidity;BME280_pressure;Samples;Min_cycle;Max_cycle;Signal;HPM_P1;HPM_P2
2022/11/14 00:00:46;;;;;;;8.40;5.50;;;22.00;60.20;;;;;;5033002;28;20497;-70
2022/11/14 00:03:30;;;;;;;9.63;5.00;;;22.00;60.30;;;;;;5031090;28;20129;-70
2022/11/14 00:06:15;;;;;;;9.55;4.85;;;22.10;60.60;;;;;;5033635;28;20247;-70
2022/11/14 00:08:59;;;;;;;11.10;5.28;;;22.00;60.60;;;;;;5033587;28;20120;-70
2022/11/14 00:11:44;;;;;;;7.60;4.88;;;22.00;60.50;;;;;;5034776;28;20465;-70
2022/11/14 00:14:28;;;;;;;10.02;5.57;;;22.00;60.30;;;;;;5033529;28;20383;-70
2022/11/14 00:17:13;;;;;;;10.98;5.55;;;21.90;60.20;;;;;;5032029;28;20034;-70
2022/11/14 00:19:57;;;;;;;11.10;5.60;;;22.00;60.30;;;;;;5033663;28;20033;-70
2022/11/14 00:22:42;;;;;;;8.65;5.35;;;22.00;60.10;;;;;;5032265;28;20029;-70
2022/11/14 00:25:27;;;;;;;9.52;5.55;;;22.00;60.10;;;;;;5033375;28;20041;-70
2022/11/14 00:28:12;;;;;;;9.82;5.38;;;22.00;60.10;;;;;;5033171;28;20454;-70
2022/11/14 00:30:56;;;;;;;9.82;6.32;;;22.00;60.00;;;;;;5033400;28;20033;-70
2022/11/14 00:33:41;;;;;;;11.68;5.82;;;22.00;60.00;;;;;;5029587;28;20144;-70
2022/11/14 00:36:25;;;;;;;10.02;5.55;;;22.00;59.90;;;;;;5033185;28;20735;-70
2022/11/14 00:39:13;;;;;;;9.85;6.00;;;22.00;60.00;;;;;;5033290;28;20034;-70
2022/11/14 00:41:58;;;;;;;12.73;5.72;;;22.00;60.10;;;;;;5032947;28;20026;-70
2022/11/14 00:44:42;;;;;;;8.85;5.13;;;21.90;60.20;;;;;;5032639;28;20536;-70
2022/11/14 00:47:27;;;;;;;8.48;4.82;;;21.90;60.20;;;;;;5031348;28;20104;-70
2022/11/14 00:50:11;;;;;;;10.48;4.90;;;21.90;60.20;;;;;;5013356;28;20045;-70
2022/11/14 00:52:56;;;;;;;9.50;5.53;;;21.80;60.20;;;;;;5013079;28;20117;-70
2022/11/14 00:55:42;;;;;;;7.68;4.68;;;21.90;60.30;;;;;;5013214;28;20464;-70
2022/11/14 00:58:27;;;;;;;7.07;4.28;;;21.90;60.40;;;;;;5012854;28;20026;-70
2022/11/14 01:01:11;;;;;;;6.93;4.30;;;21.80;60.20;;;;;;5021203;28;20037;-70
2022/11/14 01:03:56;;;;;;;5.78;4.20;;;21.80;60.10;;;;;;5031832;28;20029;-70
2022/11/14 01:06:40;;;;;;;6.38;4.30;;;21.80;60.10;;;;;;5032648;28;20056;-70
2022/11/14 01:09:25;;;;;;;6.72;4.22;;;21.80;60.10;;;;;;5032420;28;20084;-70
2022/11/14 01:12:09;;;;;;;5.82;4.00;;;21.80;59.90;;;;;;5032125;28;20034;-70
2022/11/14 01:14:54;;;;;;;5.70;3.90;;;21.80;59.90;;;;;;5032210;28;20055;-70
2022/11/14 01:17:38;;;;;;;7.85;4.50;;;22.00;60.00;;;;;;5030582;28;20033;-70
2022/11/14 01:20:24;;;;;;;7.72;3.97;;;22.00;60.00;;;;;;5031618;28;20108;-70
2022/11/14 01:23:10;;;;;;;6.75;4.32;;;21.90;59.90;;;;;;5031990;28;20119;-70
2022/11/14 01:26:01;;;;;;;5.25;3.58;;;21.80;59.80;;;;;;5032250;28;20483;-70
2022/11/14 01:28:45;;;;;;;5.65;3.78;;;21.80;59.70;;;;;;5032207;28;20686;-70
2022/11/14 01:31:30;;;;;;;7.82;3.63;;;21.80;59.80;;;;;;5032170;28;20408;-70
2022/11/14 01:34:14;;;;;;;7.10;4.10;;;21.80;59.90;;;;;;5030598;28;20035;-70
2022/11/14 01:36:59;;;;;;;5.50;3.92;;;21.80;59.90;;;;;;5032095;28;20025;-70
2022/11/14 01:39:43;;;;;;;5.45;3.88;;;21.70;60.00;;;;;;5032255;28;20097;-70
2022/11/14 01:42:28;;;;;;;6.38;3.97;;;21.70;60.00;;;;;;5031645;28;20390;-70
2022/11/14 01:45:46;;;;;;;5.95;3.88;;;21.80;60.00;;;;;;5030363;28;20665;-70
2022/11/14 01:48:43;;;;;;;5.72;4.13;;;21.70;60.00;;;;;;5030920;28;20355;-70
2022/11/14 01:51:39;;;;;;;5.38;3.67;;;21.70;60.20;;;;;;5031669;28;20038;-70
2022/11/14 01:54:31;;;;;;;5.47;3.42;;;21.70;60.30;;;;;;5031911;28;20025;-70
2022/11/14 01:57:19;;;;;;;7.05;4.18;;;21.60;60.10;;;;;;5031635;28;20033;-69
2022/11/14 02:00:07;;;;;;;6.28;3.70;;;21.70;60.10;;;;;;5043701;28;20047;-70
2022/11/14 02:02:53;;;;;;;6.68;3.97;;;21.70;60.00;;;;;;5029760;28;20040;-70
2022/11/14 02:05:38;;;;;;;8.23;4.22;;;21.70;60.00;;;;;;5030692;28;20041;-70
2022/11/14 02:08:24;;;;;;;5.32;3.75;;;21.70;59.90;;;;;;5031085;28;20044;-70
2022/11/14 02:11:11;;;;;;;5.95;3.70;;;21.70;59.80;;;;;;5028696;28;20045;-70
2022/11/14 02:13:57;;;;;;;5.85;3.40;;;21.80;59.80;;;;;;5031189;28;20034;-70
2022/11/14 02:16:43;;;;;;;5.32;3.70;;;21.80;59.80;;;;;;5043805;28;20343;-70
2022/11/14 02:20:02;;;;;;;4.90;3.60;;;21.70;59.80;;;;;;5031362;28;20041;-70
2022/11/14 02:22:46;;;;;;;4.93;3.67;;;21.70;59.80;;;;;;5008786;28;20049;-70
2022/11/14 02:25:31;;;;;;;4.75;3.15;;;21.60;59.70;;;;;;5005836;28;20046;-70
2022/11/14 02:28:16;;;;;;;5.30;3.03;;;21.60;59.90;;;;;;5008761;28;20050;-70
2022/11/14 02:31:00;;;;;;;5.30;3.15;;;21.60;59.80;;;;;;5008823;28;20034;-70
2022/11/14 02:33:45;;;;;;;5.72;3.65;;;21.60;59.70;;;;;;4992316;28;20049;-71
2022/11/14 02:36:29;;;;;;;4.95;3.85;;;21.60;59.80;;;;;;4989085;28;20038;-70
2022/11/14 02:39:14;;;;;;;5.13;3.20;;;21.60;59.80;;;;;;4989175;28;20137;-70
2022/11/14 02:41:58;;;;;;;6.18;3.83;;;21.50;59.70;;;;;;4993554;28;20722;-70
2022/11/14 02:44:43;;;;;;;5.25;3.05;;;21.60;59.60;;;;;;4988902;28;20050;-70
2022/11/14 02:47:27;;;;;;;5.43;3.63;;;21.50;59.80;;;;;;5005558;28;20586;-70
2022/11/14 02:50:12;;;;;;;6.32;3.65;;;21.50;59.90;;;;;;5008802;28;20030;-70
2022/11/14 02:52:56;;;;;;;6.50;3.75;;;21.60;59.80;;;;;;5008760;28;20072;-70
2022/11/14 02:55:41;;;;;;;5.80;3.35;;;21.70;59.80;;;;;;5006429;28;20049;-70
2022/11/14 02:58:25;;;;;;;5.72;3.20;;;21.70;59.70;;;;;;5013197;28;20426;-70
2022/11/14 03:01:10;;;;;;;4.25;2.95;;;21.50;59.60;;;;;;5030874;28;20072;-70
2022/11/14 03:03:55;;;;;;;3.58;2.70;;;21.60;59.60;;;;;;5033462;28;20091;-70
2022/11/14 03:06:39;;;;;;;4.25;3.13;;;21.70;59.70;;;;;;5032300;28;20494;-70
2022/11/14 03:09:24;;;;;;;3.63;2.70;;;21.80;59.60;;;;;;5033829;28;20128;-70
2022/11/14 03:12:09;;;;;;;3.85;2.80;;;21.70;59.40;;;;;;5025058;28;20120;-70
2022/11/14 03:14:54;;;;;;;5.18;3.03;;;21.60;59.30;;;;;;5034444;28;20037;-70
2022/11/14 03:17:38;;;;;;;3.80;2.55;;;21.60;59.30;;;;;;5034923;28;20120;-70
2022/11/14 03:20:22;;;;;;;3.03;2.22;;;21.60;59.30;;;;;;5034722;28;20596;-70
2022/11/14 03:23:07;;;;;;;3.13;2.42;;;21.60;59.40;;;;;;5034702;28;20082;-70
2022/11/14 03:25:52;;;;;;;4.30;2.70;;;21.60;59.60;;;;;;5034499;28;20124;-70
2022/11/14 03:28:37;;;;;;;3.92;2.55;;;21.60;59.60;;;;;;5034353;28;20029;-70
2022/11/14 03:31:22;;;;;;;2.63;2.38;;;21.50;59.70;;;;;;5034016;28;20052;-71
2022/11/14 03:34:07;;;;;;;3.35;2.47;;;21.50;59.60;;;;;;5034241;28;20108;-70
2022/11/14 03:36:52;;;;;;;4.05;2.78;;;21.40;59.60;;;;;;5033745;28;20040;-70
2022/11/14 03:39:37;;;;;;;3.67;2.33;;;21.30;59.50;;;;;;5033197;28;20021;-70
2022/11/14 03:42:21;;;;;;;4.53;2.65;;;21.50;59.80;;;;;;5034243;28;20068;-70
2022/11/14 03:45:06;;;;;;;4.68;2.53;;;21.40;59.70;;;;;;5032092;28;20045;-70
2022/11/14 03:47:53;;;;;;;3.33;2.70;;;21.50;59.70;;;;;;5026265;28;20058;-70
2022/11/14 03:50:38;;;;;;;3.75;2.47;;;21.50;59.60;;;;;;5018350;28;20489;-70
2022/11/14 03:53:23;;;;;;;3.65;2.55;;;21.50;59.40;;;;;;5032216;28;20546;-70
2022/11/14 03:56:07;;;;;;;5.35;2.97;;;21.50;59.40;;;;;;5033901;28;20022;-71
2022/11/14 03:58:52;;;;;;;4.88;2.42;;;21.60;59.40;;;;;;5033922;28;20044;-70
2022/11/14 04:01:36;;;;;;;3.63;2.50;;;21.60;59.40;;;;;;5017178;28;20080;-70
2022/11/14 04:04:21;;;;;;;6.53;2.50;;;21.60;59.30;;;;;;5033711;28;20496;-70
2022/11/14 04:07:06;;;;;;;4.45;2.40;;;21.50;59.30;;;;;;5033862;28;20025;-70
2022/11/14 04:09:50;;;;;;;4.15;2.25;;;21.50;59.30;;;;;;5025400;28;20099;-70
2022/11/14 04:12:35;;;;;;;4.55;2.78;;;21.50;59.40;;;;;;5032407;28;20032;-70
2022/11/14 04:15:20;;;;;;;4.10;2.63;;;21.40;59.20;;;;;;5032896;28;20033;-70
2022/11/14 04:18:04;;;;;;;4.45;2.40;;;21.50;59.40;;;;;;5013555;28;20038;-70
2022/11/14 04:20:49;;;;;;;3.83;2.40;;;21.40;59.30;;;;;;5013564;28;20470;-70
2022/11/14 04:23:33;;;;;;;4.15;2.83;;;21.50;59.50;;;;;;5013574;28;20058;-70
2022/11/14 04:26:18;;;;;;;5.47;2.60;;;21.30;59.40;;;;;;5031712;28;20033;-70
2022/11/14 04:29:03;;;;;;;4.10;2.65;;;21.40;59.50;;;;;;5032024;28;20482;-70
2022/11/14 04:31:47;;;;;;;3.47;2.15;;;21.50;59.70;;;;;;5030752;28;20025;-70
2022/11/14 04:34:32;;;;;;;3.85;2.38;;;21.30;59.50;;;;;;5024670;28;20605;-70
2022/11/14 04:37:16;;;;;;;4.05;2.60;;;21.40;59.50;;;;;;5032292;28;20120;-70
2022/11/14 04:40:01;;;;;;;2.75;2.28;;;21.40;59.20;;;;;;5032931;28;20025;-70
2022/11/14 04:42:47;;;;;;;5.05;2.75;;;21.40;58.90;;;;;;5032999;28;20101;-70
2022/11/14 04:45:31;;;;;;;4.03;2.70;;;21.50;59.00;;;;;;5032450;28;20041;-70
2022/11/14 04:48:16;;;;;;;3.30;2.78;;;21.50;58.90;;;;;;5032790;28;20123;-70
2022/11/14 04:51:00;;;;;;;3.63;2.47;;;21.60;59.00;;;;;;5033117;28;20088;-70
2022/11/14 04:53:45;;;;;;;5.53;2.50;;;21.60;59.10;;;;;;5032942;28;20029;-70
2022/11/14 04:56:30;;;;;;;4.30;2.97;;;21.50;58.90;;;;;;5030449;28;20542;-71
2022/11/14 04:59:14;;;;;;;4.38;2.58;;;21.50;58.90;;;;;;5030541;28;20490;-71
2022/11/14 05:01:59;;;;;;;4.68;2.83;;;21.50;59.00;;;;;;5032580;28;20064;-70
2022/11/14 05:04:46;;;;;;;4.15;2.58;;;21.50;59.00;;;;;;5032487;28;20041;-70
2022/11/14 05:07:30;;;;;;;5.18;3.42;;;21.50;59.10;;;;;;5032614;28;20022;-70
2022/11/14 05:10:14;;;;;;;4.70;2.53;;;21.50;59.10;;;;;;5032565;28;20132;-71
2022/11/14 05:12:59;;;;;;;3.78;2.80;;;21.50;59.10;;;;;;5031308;28;20052;-70
2022/11/14 05:15:44;;;;;;;3.92;2.30;;;21.50;59.20;;;;;;5030215;28;20025;-70
2022/11/14 05:18:28;;;;;;;3.75;2.45;;;21.50;59.20;;;;;;5032261;28;20091;-70
2022/11/14 05:21:14;;;;;;;2.55;2.05;;;21.40;59.20;;;;;;5025332;28;20052;-70
2022/11/14 05:23:58;;;;;;;3.78;2.50;;;21.50;59.30;;;;;;5023716;28;20152;-70
2022/11/14 05:26:43;;;;;;;4.10;2.58;;;21.50;59.10;;;;;;5030682;28;20124;-70
2022/11/14 05:29:28;;;;;;;4.22;3.00;;;21.40;59.00;;;;;;5030068;28;20045;-70
2022/11/14 05:32:13;;;;;;;5.50;3.10;;;21.40;59.10;;;;;;5029773;28;20044;-70
2022/11/14 05:34:57;;;;;;;4.78;2.90;;;21.40;59.30;;;;;;5023603;28;20052;-70
2022/11/14 05:37:42;;;;;;;4.43;3.15;;;21.40;59.10;;;;;;5029044;28;20434;-70
2022/11/14 05:40:26;;;;;;;3.15;2.50;;;21.50;59.10;;;;;;5029834;28;20033;-69
2022/11/14 05:43:10;;;;;;;2.63;2.10;;;21.40;54.20;;;;;;5027311;28;20121;-69
2022/11/14 05:46:00;;;;;;;3.72;2.85;;;21.50;54.40;;;;;;5030823;28;20041;-70
2022/11/14 05:48:44;;;;;;;3.72;3.10;;;21.60;54.70;;;;;;5023201;28;20033;-69
2022/11/14 05:51:29;;;;;;;4.72;3.55;;;21.70;53.40;;;;;;5029219;28;20061;-71
2022/11/14 05:54:13;;;;;;;4.45;2.47;;;21.70;53.50;;;;;;5030595;28;20052;-71
2022/11/14 05:56:58;;;;;;;4.40;3.20;;;21.80;54.00;;;;;;5029539;28;20125;-70
2022/11/14 05:59:42;;;;;;;7.78;6.32;;;21.80;54.70;;;;;;5029955;28;20057;-69
2022/11/14 06:02:27;;;;;;;14.60;9.90;;;21.70;55.20;;;;;;5026894;28;20709;-72
2022/11/14 06:05:11;;;;;;;18.13;13.07;;;21.80;54.60;;;;;;5027540;28;20071;-70
2022/11/14 06:07:57;;;;;;;18.13;12.40;;;22.00;54.80;;;;;;5029700;28;20045;-70
2022/11/14 06:10:42;;;;;;;8.13;7.15;;;22.10;55.80;;;;;;5031221;28;20064;-71
2022/11/14 06:13:26;;;;;;;5.72;3.60;;;22.10;55.30;;;;;;5031098;28;20037;-70
2022/11/14 06:16:16;;;;;;;5.15;3.60;;;22.20;61.90;;;;;;5030271;28;20124;-71
2022/11/14 06:19:01;;;;;;;5.95;3.10;;;22.30;60.70;;;;;;5025643;28;20056;-71
2022/11/14 06:21:45;;;;;;;5.43;4.13;;;22.40;61.10;;;;;;5028497;28;20045;-71
2022/11/14 06:24:30;;;;;;;6.70;3.50;;;22.20;61.10;;;;;;5030265;28;20437;-71
2022/11/14 06:27:15;;;;;;;8.02;3.72;;;22.20;61.40;;;;;;5029544;28;20060;-72
2022/11/14 06:30:00;;;;;;;4.60;3.20;;;22.10;61.80;;;;;;5030733;28;20037;-71
2022/11/14 06:32:45;;;;;;;4.88;3.00;;;22.00;61.90;;;;;;5028389;28;20068;-73
2022/11/14 06:35:32;;;;;;;4.50;3.20;;;21.90;62.00;;;;;;5029105;28;20044;-72
2022/11/14 06:38:16;;;;;;;5.57;3.45;;;22.00;55.70;;;;;;5030080;28;20041;-72
2022/11/14 06:41:01;;;;;;;4.45;2.72;;;21.70;53.80;;;;;;5030191;28;20037;-72
2022/11/14 06:43:48;;;;;;;6.15;3.60;;;21.60;63.80;;;;;;5027804;28;20125;-73
2022/11/14 06:46:33;;;;;;;4.53;3.05;;;21.60;63.90;;;;;;5027505;28;20030;-71
2022/11/14 06:49:17;;;;;;;3.25;2.45;;;21.80;64.20;;;;;;5029426;28;20022;-72
2022/11/14 06:52:02;;;;;;;4.70;2.70;;;21.70;64.10;;;;;;5031009;28;20144;-71
2022/11/14 06:54:46;;;;;;;6.35;3.55;;;21.70;64.20;;;;;;5029713;28;20109;-73
2022/11/14 06:57:31;;;;;;;4.00;2.90;;;21.70;64.30;;;;;;5027140;28;20037;-71
2022/11/14 07:00:15;;;;;;;5.95;3.50;;;21.80;64.60;;;;;;5029567;28;20056;-68
2022/11/14 07:03:00;;;;;;;4.80;2.90;;;21.80;64.80;;;;;;5027519;28;20034;-68
2022/11/14 07:05:45;;;;;;;3.53;2.50;;;21.70;64.60;;;;;;5016286;28;20713;-69
2022/11/14 07:08:30;;;;;;;3.97;2.83;;;21.80;64.20;;;;;;5031109;28;20029;-70
2022/11/14 07:11:25;;;;;;;8.15;3.38;;;21.90;64.10;;;;;;5028617;28;20057;-71
2022/11/14 07:14:10;;;;;;;9.05;2.88;;;22.00;63.60;;;;;;5027997;28;20108;-72
2022/11/14 07:16:54;;;;;;;9.52;3.50;;;22.00;63.40;;;;;;5028340;28;20757;-70
2022/11/14 07:19:39;;;;;;;3.38;2.47;;;22.00;62.70;;;;;;5029131;28;20030;-69
2022/11/14 07:22:23;;;;;;;4.32;3.05;;;21.90;65.70;;;;;;5025946;28;20041;-72
2022/11/14 07:25:08;;;;;;;3.67;2.45;;;22.00;68.90;;;;;;5027705;28;20045;-70
2022/11/14 07:27:55;;;;;;;6.47;3.83;;;22.00;68.90;;;;;;5029497;28;20117;-68
2022/11/14 07:30:40;;;;;;;3.95;2.25;;;22.00;68.90;;;;;;5023888;28;20135;-70
2022/11/14 07:33:25;;;;;;;5.97;3.13;;;22.20;68.20;;;;;;5024354;28;20141;-67
2022/11/14 07:36:13;;;;;;;4.10;2.75;;;22.30;66.40;;;;;;5026265;28;20040;-66
2022/11/14 07:38:57;;;;;;;3.95;2.35;;;22.40;64.90;;;;;;5027872;28;20091;-69
2022/11/14 07:41:42;;;;;;;3.40;2.15;;;22.50;63.70;;;;;;5024216;28;20800;-68
2022/11/14 07:44:26;;;;;;;6.82;2.65;;;22.60;62.70;;;;;;5020640;28;20033;-70
2022/11/14 07:47:10;;;;;;;4.72;2.67;;;22.60;62.00;;;;;;5027126;28;20059;-72
2022/11/14 07:49:55;;;;;;;5.70;3.15;;;22.60;61.60;;;;;;5025837;28;20498;-72
2022/11/14 07:52:41;;;;;;;3.42;2.10;;;22.60;61.10;;;;;;5029827;28;20025;-70
2022/11/14 07:55:25;;;;;;;3.00;2.45;;;22.70;60.70;;;;;;5029125;28;20048;-70
2022/11/14 07:58:10;;;;;;;4.38;2.13;;;22.70;60.30;;;;;;5037034;28;20029;-72
2022/11/14 08:00:58;;;;;;;0.52;0.52;;;22.70;59.70;;;;;;5032669;28;20083;-68
2022/11/14 08:03:43;;;;;;;5.82;2.92;;;22.70;60.50;;;;;;5033008;28;20071;-70
2022/11/14 08:06:28;;;;;;;9.10;3.97;;;23.00;61.70;;;;;;5042147;28;20025;-67
2022/11/14 08:09:12;;;;;;;4.20;2.22;;;23.30;64.10;;;;;;5035535;28;20037;-66
2022/11/14 08:11:57;;;;;;;0.75;0.75;;;23.30;59.60;;;;;;5032331;28;20406;-67
2022/11/14 08:14:41;;;;;;;3.63;1.38;;;23.30;58.60;;;;;;5032072;28;20108;-70
2022/11/14 08:17:26;;;;;;;0.95;0.95;;;23.20;57.60;;;;;;5031087;28;20044;-67
2022/11/14 08:20:10;;;;;;;2.85;0.82;;;23.20;57.10;;;;;;5035230;28;20063;-67
2022/11/14 08:23:03;;;;;;;0.55;0.50;;;23.20;56.80;;;;;;5033263;28;20168;-67
2022/11/14 08:25:47;;;;;;;0.20;0.20;;;23.10;55.90;;;;;;5032781;28;20053;-67
2022/11/14 08:28:32;;;;;;;1.85;1.40;;;23.20;55.80;;;;;;5041123;28;20045;-66
2022/11/14 08:31:16;;;;;;;7.32;1.23;;;23.30;55.60;;;;;;5041237;28;20490;-66
2022/11/14 08:34:01;;;;;;;0.77;0.68;;;23.20;55.50;;;;;;5030745;28;20393;-66
2022/11/14 08:36:46;;;;;;;5.03;2.92;;;23.20;55.20;;;;;;5028529;28;20043;-70
2022/11/14 08:39:30;;;;;;;6.20;4.10;;;23.20;54.70;;;;;;5053053;28;20036;-70
2022/11/14 08:42:15;;;;;;;9.45;3.85;;;23.30;52.50;;;;;;5052831;28;20090;-68
2022/11/14 08:45:00;;;;;;;5.00;3.88;;;23.20;53.80;;;;;;5052748;28;20048;-68
2022/11/14 08:47:51;;;;;;;5.93;3.67;;;23.10;54.50;;;;;;5037750;28;20359;-69
2022/11/14 08:50:36;;;;;;;6.00;3.45;;;23.10;55.60;;;;;;5050748;28;20064;-68
2022/11/14 08:53:20;;;;;;;6.20;3.63;;;23.00;55.90;;;;;;5052756;28;20025;-68
2022/11/14 08:56:05;;;;;;;8.73;3.15;;;22.90;56.30;;;;;;5034101;28;20025;-69
2022/11/14 08:58:50;;;;;;;6.13;2.55;;;22.90;56.70;;;;;;5033828;28;20037;-70
2022/11/14 09:01:34;;;;;;;6.15;2.78;;;22.80;56.60;;;;;;5035630;28;20401;-68
2022/11/14 09:04:18;;;;;;;2.60;2.15;;;23.10;56.20;;;;;;5047315;28;20128;-68
2022/11/14 09:07:03;;;;;;;4.50;3.25;;;23.00;55.10;;;;;;5034648;28;20458;-69
2022/11/14 09:09:48;;;;;;;6.10;3.53;;;23.10;54.30;;;;;;5044440;28;20103;-68
2022/11/14 09:12:33;;;;;;;7.68;2.78;;;23.10;53.90;;;;;;5039115;28;20051;-68
2022/11/14 09:15:17;;;;;;;4.40;3.13;;;23.10;53.90;;;;;;5043898;28;20041;-68
2022/11/14 09:18:02;;;;;;;5.55;4.05;;;23.20;53.70;;;;;;5048946;28;20044;-69
2022/11/14 09:20:47;;;;;;;8.10;2.88;;;23.00;47.60;;;;;;5044455;28;20030;-69
2022/11/14 09:23:32;;;;;;;6.30;3.67;;;22.90;53.10;;;;;;5052101;28;20033;-70
2022/11/14 09:26:19;;;;;;;4.32;3.05;;;22.70;53.50;;;;;;5029959;28;20558;-69
2022/11/14 09:29:05;;;;;;;6.78;3.47;;;22.70;58.60;;;;;;5030162;28;20037;-68
2022/11/14 09:31:51;;;;;;;7.18;3.53;;;22.60;61.00;;;;;;5025104;28;20030;-70
2022/11/14 09:34:36;;;;;;;7.18;4.07;;;22.50;58.40;;;;;;5050127;28;20099;-69
2022/11/14 09:37:20;;;;;;;5.70;3.72;;;22.50;58.20;;;;;;5029679;28;20038;-67
2022/11/14 09:40:07;;;;;;;6.20;3.38;;;22.40;58.00;;;;;;5031886;28;20041;-68
2022/11/14 09:43:20;;;;;;;5.18;2.85;;;22.40;57.90;;;;;;5031735;28;20026;-68
2022/11/14 09:46:13;;;;;;;;;;;22.30;58.10;;;;;;5020140;28;20029;-69
2022/11/14 09:48:58;;;;;;;4.90;3.40;;;22.40;58.10;;;;;;5032025;28;19916;-67
2022/11/14 09:51:51;;;;;;;6.30;3.75;;;22.30;58.40;;;;;;5030523;28;20144;-68
2022/11/14 09:54:44;;;;;;;8.95;3.53;;;22.40;58.60;;;;;;5029849;28;20029;-69
2022/11/14 09:57:29;;;;;;;6.30;3.92;;;22.30;58.90;;;;;;5031494;28;20128;-68
2022/11/14 10:00:15;;;;;;;5.65;3.45;;;22.30;59.20;;;;;;5015071;28;20026;-68
2022/11/14 10:03:30;;;;;;;6.65;3.50;;;22.30;59.50;;;;;;5030095;28;20039;-68
2022/11/14 10:06:32;;;;;;;5.13;3.92;;;22.30;59.80;;;;;;5030166;28;20041;-68
2022/11/14 10:09:19;;;;;;;5.18;3.60;;;22.40;60.50;;;;;;5031462;28;20056;-66
2022/11/14 10:12:14;;;;;;;9.40;3.53;;;22.30;60.60;;;;;;5031712;28;20037;-69
2022/11/14 10:15:24;;;;;;;4.70;3.40;;;22.40;52.40;;;;;;5029740;28;20034;-69
2022/11/14 10:18:26;;;;;;;5.47;2.95;;;22.60;51.20;;;;;;5045993;28;20040;-68
2022/11/14 10:21:22;;;;;;;4.95;2.80;;;22.70;50.70;;;;;;5046432;28;20116;-70
2022/11/14 10:24:38;;;;;;;8.52;3.50;;;23.00;50.00;;;;;;5047234;28;20469;-70
2022/11/14 10:27:41;;;;;;;7.70;3.33;;;23.00;49.60;;;;;;5048351;28;20044;-70
2022/11/14 10:30:39;;;;;;;4.47;3.33;;;22.90;50.10;;;;;;5047456;28;20048;-70
2022/11/14 10:33:38;;;;;;;5.20;4.28;;;23.10;53.40;;;;;;5047813;28;20029;-69
2022/11/14 10:36:35;;;;;;;4.05;2.00;;;23.20;51.10;;;;;;5046849;28;20124;-69
2022/11/14 10:39:31;;;;;;;8.80;3.03;;;23.30;54.90;;;;;;5047203;28;20033;-69
2022/11/14 10:42:33;;;;;;;6.20;2.85;;;23.40;53.60;;;;;;5050891;28;20044;-69
2022/11/14 10:45:27;;;;;;;7.68;2.85;;;23.40;50.00;;;;;;5042210;28;20029;-66
2022/11/14 10:48:14;;;;;;;;;;;23.40;50.60;;;;;;5048987;28;20044;-68
2022/11/14 10:51:04;;;;;;;9.95;4.57;;;23.50;48.60;;;;;;5053612;28;19908;-68
2022/11/14 10:53:54;;;;;;;10.55;3.65;;;23.40;51.40;;;;;;5043552;28;20385;-68
2022/11/14 10:56:46;;;;;;;6.10;3.28;;;23.50;50.90;;;;;;5024400;28;20030;-67
2022/11/14 10:59:31;;;;;;;4.60;3.10;;;23.40;47.80;;;;;;5042467;28;20471;-67
2022/11/14 11:02:15;;;;;;;3.17;2.60;;;23.30;47.70;;;;;;5036373;28;20093;-69
2022/11/14 11:05:13;;;;;;;4.32;2.72;;;23.40;47.60;;;;;;5028701;28;20095;-69
2022/11/14 11:14:18;;;;;;;4.63;2.58;;;23.30;48.40;;;;;;5041662;28;20430;-69
2022/11/14 11:17:11;;;;;;;4.57;3.13;;;23.40;51.90;;;;;;5032761;28;20044;-69
2022/11/14 11:20:21;;;;;;;6.03;3.90;;;23.30;49.60;;;;;;5034377;28;20032;-69
2022/11/14 11:23:18;;;;;;;5.28;3.22;;;23.30;49.10;;;;;;5030185;28;20120;-69
2022/11/14 11:26:07;;;;;;;7.93;3.72;;;23.40;52.50;;;;;;5039332;28;20051;-68
2022/11/14 11:29:03;;;;;;;8.93;3.25;;;23.40;52.80;;;;;;5036701;28;20115;-69
2022/11/14 11:31:54;;;;;;;5.93;3.83;;;23.40;50.80;;;;;;5033205;28;20044;-69
2022/11/14 11:34:39;;;;;;;10.45;4.53;;;23.40;50.60;;;;;;5037464;28;20051;-73
2022/11/14 11:37:35;;;;;;;4.65;3.03;;;23.50;50.90;;;;;;5044060;28;20402;-69
2022/11/14 11:40:27;;;;;;;5.22;3.40;;;23.50;48.70;;;;;;5053553;28;20112;-70
2022/11/14 11:43:23;;;;;;;5.07;3.70;;;23.40;47.80;;;;;;5047688;28;20574;-70
2022/11/14 11:46:20;;;;;;;4.60;3.28;;;23.40;48.10;;;;;;5021920;28;20048;-70
2022/11/14 11:49:15;;;;;;;4.45;3.47;;;23.50;47.40;;;;;;5032369;28;20063;-69
2022/11/14 11:52:11;;;;;;;3.25;3.00;;;23.50;46.20;;;;;;5047541;28;20102;-71
2022/11/14 11:55:07;;;;;;;4.40;3.05;;;23.60;46.00;;;;;;5036574;28;20386;-70
2022/11/14 11:58:01;;;;;;;4.85;3.17;;;23.60;45.30;;;;;;5029846;28;20056;-70
2022/11/14 12:00:45;;;;;;;4.03;3.63;;;23.70;44.40;;;;;;5016138;28;20029;-71
2022/11/14 12:03:30;;;;;;;5.68;4.10;;;23.70;46.90;;;;;;5053636;28;20025;-71
2022/11/14 12:06:26;;;;;;;7.55;3.90;;;23.80;52.30;;;;;;5044639;28;20071;-70
2022/11/14 12:09:25;;;;;;;4.50;3.95;;;23.60;53.80;;;;;;5011350;28;20092;-71
2022/11/14 12:12:30;;;;;;;6.78;4.15;;;23.60;51.30;;;;;;5013960;28;20627;-70
2022/11/14 12:15:23;;;;;;;5.78;4.65;;;23.50;52.50;;;;;;5014635;28;20033;-70
2022/11/14 12:18:33;;;;;;;9.15;4.85;;;23.40;52.70;;;;;;5038666;28;20120;-70
2022/11/14 12:21:18;;;;;;;7.40;5.50;;;23.40;55.00;;;;;;5013750;28;20029;-70
2022/11/14 12:24:21;;;;;;;6.85;4.13;;;23.50;56.80;;;;;;5023115;28;20456;-69
2022/11/14 12:27:21;;;;;;;6.72;4.82;;;23.40;53.70;;;;;;5018136;28;20046;-71
2022/11/14 12:30:14;;;;;;;6.20;5.30;;;23.40;54.70;;;;;;5017033;28;20033;-71
2022/11/14 12:33:09;;;;;;;5.47;4.22;;;23.50;53.30;;;;;;5026554;28;20025;-70
2022/11/14 12:35:57;;;;;;;7.53;4.80;;;23.40;56.70;;;;;;5032703;28;20034;-69
2022/11/14 12:38:49;;;;;;;5.15;3.70;;;23.40;54.90;;;;;;5049178;28;20102;-70
2022/11/14 12:41:36;;;;;;;6.45;4.25;;;23.50;55.40;;;;;;5033039;28;20495;-70
2022/11/14 12:44:27;;;;;;;5.88;4.40;;;23.40;55.40;;;;;;5042089;28;20092;-72
2022/11/14 12:47:15;;;;;;;6.45;4.15;;;23.50;55.60;;;;;;5051289;28;20045;-68
2022/11/14 12:50:01;;;;;;;8.63;4.70;;;23.60;55.30;;;;;;5047302;28;20042;-67
2022/11/14 12:52:52;;;;;;;6.88;4.53;;;23.60;54.40;;;;;;5031139;28;20076;-67
2022/11/14 12:55:43;;;;;;;7.55;5.18;;;23.60;53.70;;;;;;5051966;28;20045;-67
2022/11/14 12:58:51;;;;;;;7.57;5.28;;;23.50;51.70;;;;;;5047191;28;20074;-68
2022/11/14 13:01:50;;;;;;;8.20;4.82;;;23.40;53.60;;;;;;5033642;28;20018;-69
2022/11/14 13:04:43;;;;;;;6.05;4.60;;;23.40;53.90;;;;;;5032252;28;20056;-68
2022/11/14 13:07:40;;;;;;;5.05;4.30;;;23.50;59.30;;;;;;5030976;28;20029;-67
2022/11/14 13:10:31;;;;;;;6.10;4.63;;;23.50;55.90;;;;;;5029578;28;20041;-67
2022/11/14 13:22:44;;;;;;;4.13;3.73;;;23.40;54.20;;;;;;5029416;28;19916;-68
2022/11/14 13:25:29;;;;;;;4.82;3.90;;;23.40;56.10;;;;;;5032356;28;20049;-68
2022/11/14 13:28:46;;;;;;;5.25;4.35;;;23.50;56.10;;;;;;5030558;28;20037;-67
2022/11/14 13:31:44;;;;;;;5.72;4.10;;;23.50;55.60;;;;;;5031003;28;20426;-68
2022/11/14 13:34:50;;;;;;;5.57;4.05;;;23.60;55.30;;;;;;5031636;28;20117;-68
2022/11/14 13:38:01;;;;;;;6.88;3.80;;;23.60;56.40;;;;;;5029618;28;20091;-67
2022/11/14 13:41:09;;;;;;;4.70;3.78;;;23.60;56.50;;;;;;5030688;28;20033;-68
2022/11/14 13:44:06;;;;;;;5.93;3.92;;;23.70;56.70;;;;;;5029882;28;20037;-66
2022/11/14 13:46:53;;;;;;;8.07;3.95;;;23.80;56.40;;;;;;5029817;28;20037;-68
2022/11/14 13:49:54;;;;;;;6.07;3.40;;;23.80;56.40;;;;;;5031635;28;20033;-68
2022/11/14 13:52:47;;;;;;;4.20;3.58;;;23.70;56.10;;;;;;5044564;28;20102;-67
2022/11/14 13:55:54;;;;;;;6.35;4.53;;;23.80;55.10;;;;;;5049257;28;20097;-67
2022/11/14 13:59:03;;;;;;;4.78;3.80;;;23.80;56.20;;;;;;5039802;28;20136;-67
2022/11/14 14:01:50;;;;;;;6.80;4.53;;;23.90;56.40;;;;;;5030351;28;20029;-67
2022/11/14 14:05:11;;;;;;;6.40;4.13;;;23.90;55.90;;;;;;5030650;28;20044;-67
2022/11/14 14:08:22;;;;;;;5.80;4.22;;;23.80;56.00;;;;;;5031491;28;20041;-67
2022/11/14 14:11:35;;;;;;;7.82;5.05;;;24.00;56.30;;;;;;4997470;28;20171;-67
2022/11/14 14:14:45;;;;;;;7.03;4.53;;;23.90;56.00;;;;;;4994483;28;20085;-67
2022/11/14 14:17:35;;;;;;;5.25;4.63;;;23.90;53.80;;;;;;4984981;28;20039;-68
2022/11/14 14:20:41;;;;;;;11.77;5.28;;;23.90;53.30;;;;;;4980946;28;20061;-68
2022/11/14 14:23:53;;;;;;;10.50;6.13;;;23.80;54.00;;;;;;4981806;28;20027;-67
2022/11/14 14:27:15;;;;;;;11.98;6.88;;;23.80;54.50;;;;;;4979323;28;20113;-67
2022/11/14 14:30:16;;;;;;;8.38;6.60;;;23.80;55.80;;;;;;4917229;29;20047;-67
2022/11/14 14:33:13;;;;;;;14.68;6.55;;;23.90;55.10;;;;;;4927890;29;20040;-65
2022/11/14 14:35:57;;;;;;;8.32;6.00;;;23.80;55.30;;;;;;4925434;29;20079;-68
2022/11/14 14:38:42;;;;;;;8.20;6.25;;;23.90;55.00;;;;;;4912585;29;20040;-68
2022/11/14 14:41:30;;;;;;;9.73;6.25;;;23.80;55.30;;;;;;4910104;29;20127;-67
2022/11/14 14:44:37;;;;;;;9.10;6.07;;;23.80;55.00;;;;;;4892532;29;20160;-67
2022/11/14 14:47:40;;;;;;;8.35;6.10;;;23.90;55.80;;;;;;4906224;29;20056;-68
2022/11/14 14:50:46;;;;;;;20.40;8.23;;;23.90;55.70;;;;;;4892545;29;20037;-65
2022/11/14 14:53:34;;;;;;;13.60;7.45;;;23.90;56.70;;;;;;4899818;29;20203;-68